sensor_id;sensor_type;location;lat;lon;timestamp;P1;durP1;ratioP1;P2;durP2;ratioP2
73428;SDS011;61643;49.564;17.412;2024-02-26T00:01:43;20.00;;;10.02;;
73428;SDS011;61643;49.564;17.412;2024-02-26T00:04:09;19.15;;;9.13;;
73428;SDS011;61643;49.564;17.412;2024-02-26T00:06:36;17.67;;;9.65;;
73428;SDS011;61643;49.564;17.412;2024-02-26T00:09:04;17.70;;;9.50;;
73428;SDS011;61643;49.564;17.412;2024-02-26T00:11:31;19.73;;;9.80;;
73428;SDS011;61643;49.564;17.412;2024-02-26T00:13:57;17.05;;;8.95;;
73428;SDS011;61643;49.564;17.412;2024-02-26T00:16:24;20.33;;;10.07;;
73428;SDS011;61643;49.564;17.412;2024-02-26T00:18:50;16.15;;;9.80;;
73428;SDS011;61643;49.564;17.412;2024-02-26T00:21:16;16.95;;;8.88;;
73428;SDS011;61643;49.564;17.412;2024-02-26T00:23:42;13.63;;;8.10;;
73428;SDS011;61643;49.564;17.412;2024-02-26T00:26:08;16.73;;;9.00;;
73428;SDS011;61643;49.564;17.412;2024-02-26T00:28:34;17.08;;;9.07;;
73428;SDS011;61643;49.564;17.412;2024-02-26T00:31:00;15.10;;;8.25;;
73428;SDS011;61643;49.564;17.412;2024-02-26T00:33:26;14.80;;;8.23;;
73428;SDS011;61643;49.564;17.412;2024-02-26T00:35:52;14.20;;;7.72;;
73428;SDS011;61643;49.564;17.412;2024-02-26T00:38:18;17.40;;;8.85;;
73428;SDS011;61643;49.564;17.412;2024-02-26T00:40:44;14.23;;;7.95;;
73428;SDS011;61643;49.564;17.412;2024-02-26T00:43:10;15.65;;;8.55;;
73428;SDS011;61643;49.564;17.412;2024-02-26T00:45:36;16.55;;;8.50;;
73428;SDS011;61643;49.564;17.412;2024-02-26T00:48:02;15.77;;;8.55;;
73428;SDS011;61643;49.564;17.412;2024-02-26T00:50:31;19.55;;;9.63;;
73428;SDS011;61643;49.564;17.412;2024-02-26T00:52:57;17.30;;;8.15;;
73428;SDS011;61643;49.564;17.412;2024-02-26T00:55:23;15.55;;;7.93;;
73428;SDS011;61643;49.564;17.412;2024-02-26T00:57:49;15.52;;;8.57;;
73428;SDS011;61643;49.564;17.412;2024-02-26T01:00:15;16.67;;;8.55;;
73428;SDS011;61643;49.564;17.412;2024-02-26T01:02:41;15.43;;;8.27;;
73428;SDS011;61643;49.564;17.412;2024-02-26T01:05:07;14.55;;;8.38;;
73428;SDS011;61643;49.564;17.412;2024-02-26T01:07:36;14.75;;;7.38;;
73428;SDS011;61643;49.564;17.412;2024-02-26T01:10:03;15.63;;;7.57;;
73428;SDS011;61643;49.564;17.412;2024-02-26T01:12:29;16.83;;;8.00;;
73428;SDS011;61643;49.564;17.412;2024-02-26T01:14:55;11.25;;;6.57;;
73428;SDS011;61643;49.564;17.412;2024-02-26T01:17:21;12.93;;;7.30;;
73428;SDS011;61643;49.564;17.412;2024-02-26T01:19:47;11.18;;;7.22;;
73428;SDS011;61643;49.564;17.412;2024-02-26T01:22:13;11.98;;;6.80;;
73428;SDS011;61643;49.564;17.412;2024-02-26T01:24:39;13.10;;;7.13;;
73428;SDS011;61643;49.564;17.412;2024-02-26T01:27:05;12.48;;;6.70;;
73428;SDS011;61643;49.564;17.412;2024-02-26T01:31:59;10.38;;;6.22;;
73428;SDS011;61643;49.564;17.412;2024-02-26T01:34:25;11.98;;;5.78;;
73428;SDS011;61643;49.564;17.412;2024-02-26T01:36:50;11.73;;;6.07;;
73428;SDS011;61643;49.564;17.412;2024-02-26T01:39:16;12.77;;;6.85;;
73428;SDS011;61643;49.564;17.412;2024-02-26T01:41:42;8.68;;;5.43;;
73428;SDS011;61643;49.564;17.412;2024-02-26T01:44:08;12.35;;;6.40;;
73428;SDS011;61643;49.564;17.412;2024-02-26T01:46:38;11.77;;;6.38;;
73428;SDS011;61643;49.564;17.412;2024-02-26T01:49:05;10.75;;;5.22;;
73428;SDS011;61643;49.564;17.412;2024-02-26T01:51:32;10.77;;;5.57;;
73428;SDS011;61643;49.564;17.412;2024-02-26T01:53:59;9.60;;;5.30;;
73428;SDS011;61643;49.564;17.412;2024-02-26T01:56:28;9.40;;;5.25;;
73428;SDS011;61643;49.564;17.412;2024-02-26T01:58:56;10.65;;;5.43;;
73428;SDS011;61643;49.564;17.412;2024-02-26T02:01:24;10.07;;;5.05;;
73428;SDS011;61643;49.564;17.412;2024-02-26T02:03:51;10.18;;;5.10;;
73428;SDS011;61643;49.564;17.412;2024-02-26T02:06:17;9.48;;;5.03;;
73428;SDS011;61643;49.564;17.412;2024-02-26T02:08:44;8.88;;;5.00;;
73428;SDS011;61643;49.564;17.412;2024-02-26T02:11:10;9.93;;;5.38;;
73428;SDS011;61643;49.564;17.412;2024-02-26T02:13:37;7.47;;;4.30;;
73428;SDS011;61643;49.564;17.412;2024-02-26T02:16:03;9.57;;;5.13;;
73428;SDS011;61643;49.564;17.412;2024-02-26T02:18:30;8.93;;;5.03;;
73428;SDS011;61643;49.564;17.412;2024-02-26T02:20:56;8.18;;;4.40;;
73428;SDS011;61643;49.564;17.412;2024-02-26T02:23:25;9.27;;;4.70;;
73428;SDS011;61643;49.564;17.412;2024-02-26T02:25:51;6.85;;;4.32;;
73428;SDS011;61643;49.564;17.412;2024-02-26T02:28:18;8.07;;;4.90;;
73428;SDS011;61643;49.564;17.412;2024-02-26T02:30:45;9.35;;;5.28;;
73428;SDS011;61643;49.564;17.412;2024-02-26T02:33:11;7.72;;;5.10;;
73428;SDS011;61643;49.564;17.412;2024-02-26T02:35:37;7.25;;;4.32;;
73428;SDS011;61643;49.564;17.412;2024-02-26T02:38:04;11.60;;;4.38;;
73428;SDS011;61643;49.564;17.412;2024-02-26T02:40:29;7.85;;;4.32;;
73428;SDS011;61643;49.564;17.412;2024-02-26T02:42:55;6.57;;;3.88;;
73428;SDS011;61643;49.564;17.412;2024-02-26T02:45:24;7.97;;;4.63;;
73428;SDS011;61643;49.564;17.412;2024-02-26T02:47:50;10.07;;;4.43;;
73428;SDS011;61643;49.564;17.412;2024-02-26T02:50:16;8.07;;;4.85;;
73428;SDS011;61643;49.564;17.412;2024-02-26T02:52:42;7.20;;;4.05;;
73428;SDS011;61643;49.564;17.412;2024-02-26T02:55:08;7.93;;;3.83;;
73428;SDS011;61643;49.564;17.412;2024-02-26T02:57:34;6.68;;;3.83;;
73428;SDS011;61643;49.564;17.412;2024-02-26T03:00:00;8.30;;;3.55;;
73428;SDS011;61643;49.564;17.412;2024-02-26T03:02:26;7.60;;;3.67;;
73428;SDS011;61643;49.564;17.412;2024-02-26T03:04:52;7.35;;;4.20;;
73428;SDS011;61643;49.564;17.412;2024-02-26T03:07:18;8.23;;;4.10;;
73428;SDS011;61643;49.564;17.412;2024-02-26T03:09:44;8.40;;;4.25;;
73428;SDS011;61643;49.564;17.412;2024-02-26T03:12:10;5.10;;;2.85;;
73428;SDS011;61643;49.564;17.412;2024-02-26T03:14:35;7.95;;;4.22;;
73428;SDS011;61643;49.564;17.412;2024-02-26T03:17:01;7.13;;;3.80;;
73428;SDS011;61643;49.564;17.412;2024-02-26T03:19:27;7.47;;;4.35;;
73428;SDS011;61643;49.564;17.412;2024-02-26T03:21:53;8.48;;;4.18;;
73428;SDS011;61643;49.564;17.412;2024-02-26T03:24:19;7.95;;;4.10;;
73428;SDS011;61643;49.564;17.412;2024-02-26T03:26:45;8.02;;;4.60;;
73428;SDS011;61643;49.564;17.412;2024-02-26T03:29:11;7.03;;;4.05;;
73428;SDS011;61643;49.564;17.412;2024-02-26T03:31:37;5.07;;;3.80;;
73428;SDS011;61643;49.564;17.412;2024-02-26T03:34:04;9.27;;;4.72;;
73428;SDS011;61643;49.564;17.412;2024-02-26T03:36:30;8.63;;;4.10;;
73428;SDS011;61643;49.564;17.412;2024-02-26T03:38:56;6.80;;;4.38;;
73428;SDS011;61643;49.564;17.412;2024-02-26T03:41:22;10.18;;;4.35;;
73428;SDS011;61643;49.564;17.412;2024-02-26T03:43:48;7.68;;;4.38;;
73428;SDS011;61643;49.564;17.412;2024-02-26T03:46:14;8.15;;;4.05;;
73428;SDS011;61643;49.564;17.412;2024-02-26T03:48:41;6.47;;;3.55;;
73428;SDS011;61643;49.564;17.412;2024-02-26T03:51:08;7.25;;;4.43;;
73428;SDS011;61643;49.564;17.412;2024-02-26T03:56:04;9.65;;;4.20;;
73428;SDS011;61643;49.564;17.412;2024-02-26T03:58:31;6.47;;;3.72;;
73428;SDS011;61643;49.564;17.412;2024-02-26T04:00:58;7.97;;;4.10;;
73428;SDS011;61643;49.564;17.412;2024-02-26T04:03:25;8.93;;;4.82;;
73428;SDS011;61643;49.564;17.412;2024-02-26T04:05:51;8.07;;;4.43;;
73428;SDS011;61643;49.564;17.412;2024-02-26T04:08:17;8.45;;;3.92;;
73428;SDS011;61643;49.564;17.412;2024-02-26T04:10:43;8.30;;;4.35;;
73428;SDS011;61643;49.564;17.412;2024-02-26T04:13:09;7.10;;;4.10;;
73428;SDS011;61643;49.564;17.412;2024-02-26T04:15:35;6.57;;;4.20;;
73428;SDS011;61643;49.564;17.412;2024-02-26T04:18:01;6.72;;;3.97;;
73428;SDS011;61643;49.564;17.412;2024-02-26T04:20:28;8.10;;;4.40;;
73428;SDS011;61643;49.564;17.412;2024-02-26T04:22:54;7.38;;;3.85;;
73428;SDS011;61643;49.564;17.412;2024-02-26T04:25:20;9.50;;;4.70;;
73428;SDS011;61643;49.564;17.412;2024-02-26T04:27:46;8.00;;;4.47;;
73428;SDS011;61643;49.564;17.412;2024-02-26T04:30:12;7.95;;;4.00;;
73428;SDS011;61643;49.564;17.412;2024-02-26T04:32:38;5.40;;;3.83;;
73428;SDS011;61643;49.564;17.412;2024-02-26T04:35:04;6.78;;;3.75;;
73428;SDS011;61643;49.564;17.412;2024-02-26T04:37:30;6.93;;;3.88;;
73428;SDS011;61643;49.564;17.412;2024-02-26T04:40:00;10.02;;;4.05;;
73428;SDS011;61643;49.564;17.412;2024-02-26T04:42:26;7.60;;;3.95;;
73428;SDS011;61643;49.564;17.412;2024-02-26T04:44:53;8.45;;;3.17;;
73428;SDS011;61643;49.564;17.412;2024-02-26T04:47:20;7.25;;;3.92;;
73428;SDS011;61643;49.564;17.412;2024-02-26T04:49:49;7.43;;;3.65;;
73428;SDS011;61643;49.564;17.412;2024-02-26T04:52:15;8.23;;;4.20;;
73428;SDS011;61643;49.564;17.412;2024-02-26T04:54:41;8.93;;;3.70;;
73428;SDS011;61643;49.564;17.412;2024-02-26T04:57:07;7.43;;;4.07;;
73428;SDS011;61643;49.564;17.412;2024-02-26T04:59:33;6.50;;;3.83;;
73428;SDS011;61643;49.564;17.412;2024-02-26T05:01:59;7.25;;;3.65;;
73428;SDS011;61643;49.564;17.412;2024-02-26T05:04:25;8.32;;;3.58;;
73428;SDS011;61643;49.564;17.412;2024-02-26T05:06:51;6.80;;;3.30;;
73428;SDS011;61643;49.564;17.412;2024-02-26T05:09:17;7.78;;;3.80;;
73428;SDS011;61643;49.564;17.412;2024-02-26T05:11:43;7.05;;;3.58;;
73428;SDS011;61643;49.564;17.412;2024-02-26T05:14:10;9.18;;;3.45;;
73428;SDS011;61643;49.564;17.412;2024-02-26T05:16:36;6.65;;;3.35;;
73428;SDS011;61643;49.564;17.412;2024-02-26T05:19:02;5.88;;;3.25;;
73428;SDS011;61643;49.564;17.412;2024-02-26T05:21:29;6.72;;;3.40;;
73428;SDS011;61643;49.564;17.412;2024-02-26T05:23:54;7.32;;;3.63;;
73428;SDS011;61643;49.564;17.412;2024-02-26T05:26:21;7.97;;;3.78;;
73428;SDS011;61643;49.564;17.412;2024-02-26T05:28:47;5.30;;;3.13;;
73428;SDS011;61643;49.564;17.412;2024-02-26T05:31:14;6.10;;;3.38;;
73428;SDS011;61643;49.564;17.412;2024-02-26T05:33:40;6.75;;;3.92;;
73428;SDS011;61643;49.564;17.412;2024-02-26T05:36:06;6.93;;;3.83;;
73428;SDS011;61643;49.564;17.412;2024-02-26T05:38:34;8.18;;;4.30;;
73428;SDS011;61643;49.564;17.412;2024-02-26T05:41:01;6.60;;;3.65;;
73428;SDS011;61643;49.564;17.412;2024-02-26T05:43:27;8.20;;;3.67;;
73428;SDS011;61643;49.564;17.412;2024-02-26T05:45:53;8.52;;;3.95;;
73428;SDS011;61643;49.564;17.412;2024-02-26T05:48:20;6.63;;;3.45;;
73428;SDS011;61643;49.564;17.412;2024-02-26T05:50:46;7.13;;;3.33;;
73428;SDS011;61643;49.564;17.412;2024-02-26T05:53:12;4.95;;;3.00;;
73428;SDS011;61643;49.564;17.412;2024-02-26T05:55:38;6.30;;;3.28;;
73428;SDS011;61643;49.564;17.412;2024-02-26T05:58:04;7.35;;;3.58;;
73428;SDS011;61643;49.564;17.412;2024-02-26T06:00:30;5.80;;;3.10;;
73428;SDS011;61643;49.564;17.412;2024-02-26T06:02:56;6.47;;;3.22;;
73428;SDS011;61643;49.564;17.412;2024-02-26T06:05:23;5.00;;;3.33;;
73428;SDS011;61643;49.564;17.412;2024-02-26T06:07:49;6.88;;;3.65;;
73428;SDS011;61643;49.564;17.412;2024-02-26T06:10:15;7.47;;;3.78;;
73428;SDS011;61643;49.564;17.412;2024-02-26T06:12:41;7.57;;;3.67;;
73428;SDS011;61643;49.564;17.412;2024-02-26T06:15:07;5.57;;;3.00;;
73428;SDS011;61643;49.564;17.412;2024-02-26T06:17:33;5.15;;;3.22;;
73428;SDS011;61643;49.564;17.412;2024-02-26T06:20:00;5.47;;;3.03;;
73428;SDS011;61643;49.564;17.412;2024-02-26T06:22:26;5.38;;;3.00;;
73428;SDS011;61643;49.564;17.412;2024-02-26T06:24:52;9.00;;;3.58;;
73428;SDS011;61643;49.564;17.412;2024-02-26T06:27:18;6.70;;;2.90;;
73428;SDS011;61643;49.564;17.412;2024-02-26T06:29:44;7.20;;;2.80;;
73428;SDS011;61643;49.564;17.412;2024-02-26T06:32:10;4.35;;;2.67;;
73428;SDS011;61643;49.564;17.412;2024-02-26T06:34:36;6.80;;;2.55;;
73428;SDS011;61643;49.564;17.412;2024-02-26T06:37:03;7.30;;;2.67;;
73428;SDS011;61643;49.564;17.412;2024-02-26T06:39:29;6.05;;;3.00;;
73428;SDS011;61643;49.564;17.412;2024-02-26T06:41:55;4.38;;;2.60;;
73428;SDS011;61643;49.564;17.412;2024-02-26T06:44:26;5.75;;;2.67;;
73428;SDS011;61643;49.564;17.412;2024-02-26T06:47:00;5.05;;;2.25;;
73428;SDS011;61643;49.564;17.412;2024-02-26T06:49:27;6.50;;;2.83;;
73428;SDS011;61643;49.564;17.412;2024-02-26T06:51:53;5.30;;;3.40;;
73428;SDS011;61643;49.564;17.412;2024-02-26T06:54:19;5.57;;;3.00;;
73428;SDS011;61643;49.564;17.412;2024-02-26T06:56:46;8.07;;;3.72;;
73428;SDS011;61643;49.564;17.412;2024-02-26T06:59:12;4.57;;;2.72;;
73428;SDS011;61643;49.564;17.412;2024-02-26T07:01:40;6.72;;;3.13;;
73428;SDS011;61643;49.564;17.412;2024-02-26T07:04:07;4.60;;;2.42;;
73428;SDS011;61643;49.564;17.412;2024-02-26T07:06:33;6.07;;;3.45;;
73428;SDS011;61643;49.564;17.412;2024-02-26T07:08:59;8.52;;;3.38;;
73428;SDS011;61643;49.564;17.412;2024-02-26T07:11:25;6.15;;;2.92;;
73428;SDS011;61643;49.564;17.412;2024-02-26T07:13:50;8.35;;;3.00;;
73428;SDS011;61643;49.564;17.412;2024-02-26T07:16:16;9.32;;;3.50;;
73428;SDS011;61643;49.564;17.412;2024-02-26T07:18:42;7.43;;;3.20;;
73428;SDS011;61643;49.564;17.412;2024-02-26T07:21:11;6.43;;;3.42;;
73428;SDS011;61643;49.564;17.412;2024-02-26T07:23:37;5.00;;;2.55;;
73428;SDS011;61643;49.564;17.412;2024-02-26T07:26:03;4.53;;;2.75;;
73428;SDS011;61643;49.564;17.412;2024-02-26T07:28:29;6.95;;;3.20;;
73428;SDS011;61643;49.564;17.412;2024-02-26T07:30:55;5.15;;;2.53;;
73428;SDS011;61643;49.564;17.412;2024-02-26T07:33:21;5.50;;;2.75;;
73428;SDS011;61643;49.564;17.412;2024-02-26T07:35:47;4.57;;;3.08;;
73428;SDS011;61643;49.564;17.412;2024-02-26T07:38:13;4.97;;;2.42;;
73428;SDS011;61643;49.564;17.412;2024-02-26T07:40:39;8.75;;;2.88;;
73428;SDS011;61643;49.564;17.412;2024-02-26T07:43:05;5.22;;;3.30;;
73428;SDS011;61643;49.564;17.412;2024-02-26T07:45:31;4.72;;;2.75;;
73428;SDS011;61643;49.564;17.412;2024-02-26T07:47:57;5.57;;;2.63;;
73428;SDS011;61643;49.564;17.412;2024-02-26T07:50:23;4.90;;;2.67;;
73428;SDS011;61643;49.564;17.412;2024-02-26T07:52:49;9.68;;;4.72;;
73428;SDS011;61643;49.564;17.412;2024-02-26T07:55:16;8.70;;;4.50;;
73428;SDS011;61643;49.564;17.412;2024-02-26T07:57:42;9.43;;;4.45;;
73428;SDS011;61643;49.564;17.412;2024-02-26T08:00:09;7.30;;;3.30;;
73428;SDS011;61643;49.564;17.412;2024-02-26T08:02:36;4.00;;;2.30;;
73428;SDS011;61643;49.564;17.412;2024-02-26T08:05:02;7.78;;;2.75;;
73428;SDS011;61643;49.564;17.412;2024-02-26T08:07:28;9.30;;;3.97;;
73428;SDS011;61643;49.564;17.412;2024-02-26T08:09:54;8.57;;;4.40;;
73428;SDS011;61643;49.564;17.412;2024-02-26T08:12:20;8.13;;;3.65;;
73428;SDS011;61643;49.564;17.412;2024-02-26T08:14:46;7.65;;;3.63;;
73428;SDS011;61643;49.564;17.412;2024-02-26T08:17:12;5.50;;;3.15;;
73428;SDS011;61643;49.564;17.412;2024-02-26T08:19:38;8.10;;;2.75;;
73428;SDS011;61643;49.564;17.412;2024-02-26T08:22:04;8.38;;;3.45;;
73428;SDS011;61643;49.564;17.412;2024-02-26T08:24:30;7.22;;;2.80;;
73428;SDS011;61643;49.564;17.412;2024-02-26T08:26:56;5.15;;;2.55;;
73428;SDS011;61643;49.564;17.412;2024-02-26T08:29:22;5.65;;;2.97;;
73428;SDS011;61643;49.564;17.412;2024-02-26T08:31:48;7.40;;;2.70;;
73428;SDS011;61643;49.564;17.412;2024-02-26T08:34:14;5.95;;;2.67;;
73428;SDS011;61643;49.564;17.412;2024-02-26T08:36:40;4.50;;;2.47;;
73428;SDS011;61643;49.564;17.412;2024-02-26T08:39:08;6.20;;;2.97;;
73428;SDS011;61643;49.564;17.412;2024-02-26T08:41:34;4.80;;;2.90;;
73428;SDS011;61643;49.564;17.412;2024-02-26T08:44:01;5.10;;;2.90;;
73428;SDS011;61643;49.564;17.412;2024-02-26T08:46:27;4.25;;;2.65;;
73428;SDS011;61643;49.564;17.412;2024-02-26T08:48:53;5.85;;;3.03;;
73428;SDS011;61643;49.564;17.412;2024-02-26T08:51:19;3.65;;;2.30;;
73428;SDS011;61643;49.564;17.412;2024-02-26T08:53:45;4.65;;;2.33;;
73428;SDS011;61643;49.564;17.412;2024-02-26T08:56:11;4.07;;;2.08;;
73428;SDS011;61643;49.564;17.412;2024-02-26T08:58:42;3.83;;;2.22;;
73428;SDS011;61643;49.564;17.412;2024-02-26T09:01:09;5.40;;;2.50;;
73428;SDS011;61643;49.564;17.412;2024-02-26T09:03:35;3.92;;;2.60;;
73428;SDS011;61643;49.564;17.412;2024-02-26T09:06:01;3.47;;;2.15;;
73428;SDS011;61643;49.564;17.412;2024-02-26T09:08:27;4.57;;;2.25;;
73428;SDS011;61643;49.564;17.412;2024-02-26T09:10:53;3.58;;;1.95;;
73428;SDS011;61643;49.564;17.412;2024-02-26T09:13:19;5.60;;;2.30;;
73428;SDS011;61643;49.564;17.412;2024-02-26T09:15:45;3.35;;;2.42;;
73428;SDS011;61643;49.564;17.412;2024-02-26T09:18:11;4.22;;;1.92;;
73428;SDS011;61643;49.564;17.412;2024-02-26T09:20:37;4.00;;;2.22;;
73428;SDS011;61643;49.564;17.412;2024-02-26T09:23:04;6.70;;;2.80;;
73428;SDS011;61643;49.564;17.412;2024-02-26T09:25:29;4.28;;;2.33;;
73428;SDS011;61643;49.564;17.412;2024-02-26T09:27:55;4.20;;;2.20;;
73428;SDS011;61643;49.564;17.412;2024-02-26T09:30:21;3.72;;;1.95;;
73428;SDS011;61643;49.564;17.412;2024-02-26T09:32:48;3.35;;;2.00;;
73428;SDS011;61643;49.564;17.412;2024-02-26T09:35:14;5.35;;;2.05;;
73428;SDS011;61643;49.564;17.412;2024-02-26T09:37:40;3.70;;;2.60;;
73428;SDS011;61643;49.564;17.412;2024-02-26T09:40:06;6.70;;;2.00;;
73428;SDS011;61643;49.564;17.412;2024-02-26T09:42:32;4.40;;;2.05;;
73428;SDS011;61643;49.564;17.412;2024-02-26T09:45:00;5.30;;;2.70;;
73428;SDS011;61643;49.564;17.412;2024-02-26T09:47:34;4.75;;;1.90;;
73428;SDS011;61643;49.564;17.412;2024-02-26T09:52:28;3.63;;;1.80;;
73428;SDS011;61643;49.564;17.412;2024-02-26T09:54:58;3.65;;;1.92;;
73428;SDS011;61643;49.564;17.412;2024-02-26T09:57:24;2.72;;;1.83;;
73428;SDS011;61643;49.564;17.412;2024-02-26T09:59:53;5.22;;;2.25;;
73428;SDS011;61643;49.564;17.412;2024-02-26T10:02:24;4.82;;;2.38;;
73428;SDS011;61643;49.564;17.412;2024-02-26T10:04:51;4.97;;;2.00;;
73428;SDS011;61643;49.564;17.412;2024-02-26T10:07:19;2.70;;;2.00;;
73428;SDS011;61643;49.564;17.412;2024-02-26T10:09:46;2.38;;;1.77;;
73428;SDS011;61643;49.564;17.412;2024-02-26T10:12:12;3.55;;;1.92;;
73428;SDS011;61643;49.564;17.412;2024-02-26T10:14:38;3.83;;;1.70;;
73428;SDS011;61643;49.564;17.412;2024-02-26T10:17:06;3.80;;;1.73;;
73428;SDS011;61643;49.564;17.412;2024-02-26T10:19:34;6.85;;;1.77;;
73428;SDS011;61643;49.564;17.412;2024-02-26T10:22:00;2.92;;;1.55;;
73428;SDS011;61643;49.564;17.412;2024-02-26T10:24:27;4.28;;;1.70;;
73428;SDS011;61643;49.564;17.412;2024-02-26T10:26:54;2.88;;;1.83;;
73428;SDS011;61643;49.564;17.412;2024-02-26T10:29:21;2.42;;;1.33;;
73428;SDS011;61643;49.564;17.412;2024-02-26T10:31:50;2.80;;;1.40;;
73428;SDS011;61643;49.564;17.412;2024-02-26T10:34:16;1.88;;;1.17;;
73428;SDS011;61643;49.564;17.412;2024-02-26T10:36:42;1.55;;;1.42;;
73428;SDS011;61643;49.564;17.412;2024-02-26T10:39:12;2.20;;;1.30;;
73428;SDS011;61643;49.564;17.412;2024-02-26T10:41:42;2.08;;;1.23;;
73428;SDS011;61643;49.564;17.412;2024-02-26T10:44:09;2.80;;;1.55;;
73428;SDS011;61643;49.564;17.412;2024-02-26T10:46:42;3.83;;;1.42;;
73428;SDS011;61643;49.564;17.412;2024-02-26T10:49:15;3.08;;;1.80;;
73428;SDS011;61643;49.564;17.412;2024-02-26T10:51:45;4.60;;;1.80;;
73428;SDS011;61643;49.564;17.412;2024-02-26T10:54:21;2.13;;;1.33;;
73428;SDS011;61643;49.564;17.412;2024-02-26T10:56:51;3.05;;;1.30;;
73428;SDS011;61643;49.564;17.412;2024-02-26T10:59:17;5.13;;;2.00;;
73428;SDS011;61643;49.564;17.412;2024-02-26T11:01:47;6.18;;;2.85;;
73428;SDS011;61643;49.564;17.412;2024-02-26T11:04:15;4.45;;;2.33;;
73428;SDS011;61643;49.564;17.412;2024-02-26T11:06:42;9.40;;;3.25;;
73428;SDS011;61643;49.564;17.412;2024-02-26T11:09:14;2.10;;;1.42;;
73428;SDS011;61643;49.564;17.412;2024-02-26T11:11:40;3.10;;;1.75;;
73428;SDS011;61643;49.564;17.412;2024-02-26T11:14:08;2.92;;;1.60;;
73428;SDS011;61643;49.564;17.412;2024-02-26T11:16:35;2.10;;;1.02;;
73428;SDS011;61643;49.564;17.412;2024-02-26T11:19:02;1.63;;;1.20;;
73428;SDS011;61643;49.564;17.412;2024-02-26T11:21:28;3.42;;;1.40;;
73428;SDS011;61643;49.564;17.412;2024-02-26T11:24:06;1.92;;;1.17;;
73428;SDS011;61643;49.564;17.412;2024-02-26T11:26:34;3.50;;;1.30;;
73428;SDS011;61643;49.564;17.412;2024-02-26T11:29:05;2.17;;;1.30;;
73428;SDS011;61643;49.564;17.412;2024-02-26T11:31:36;3.70;;;1.50;;
73428;SDS011;61643;49.564;17.412;2024-02-26T11:34:04;3.22;;;1.27;;
73428;SDS011;61643;49.564;17.412;2024-02-26T11:36:30;2.30;;;1.75;;
73428;SDS011;61643;49.564;17.412;2024-02-26T11:38:56;2.63;;;1.38;;
73428;SDS011;61643;49.564;17.412;2024-02-26T11:41:22;2.83;;;1.60;;
73428;SDS011;61643;49.564;17.412;2024-02-26T11:43:58;1.45;;;1.30;;
73428;SDS011;61643;49.564;17.412;2024-02-26T11:46:26;3.17;;;1.48;;
73428;SDS011;61643;49.564;17.412;2024-02-26T11:48:58;4.13;;;1.50;;
73428;SDS011;61643;49.564;17.412;2024-02-26T11:51:32;1.45;;;1.35;;
73428;SDS011;61643;49.564;17.412;2024-02-26T11:54:00;1.63;;;1.40;;
73428;SDS011;61643;49.564;17.412;2024-02-26T11:56:26;4.20;;;1.63;;
73428;SDS011;61643;49.564;17.412;2024-02-26T12:01:40;1.63;;;1.40;;
73428;SDS011;61643;49.564;17.412;2024-02-26T12:04:15;3.00;;;1.35;;
73428;SDS011;61643;49.564;17.412;2024-02-26T12:06:51;3.38;;;1.40;;
73428;SDS011;61643;49.564;17.412;2024-02-26T12:09:40;4.63;;;1.27;;
73428;SDS011;61643;49.564;17.412;2024-02-26T12:12:07;3.42;;;1.52;;
73428;SDS011;61643;49.564;17.412;2024-02-26T12:14:36;4.15;;;1.90;;
73428;SDS011;61643;49.564;17.412;2024-02-26T12:17:04;3.20;;;1.38;;
73428;SDS011;61643;49.564;17.412;2024-02-26T12:19:35;2.60;;;1.60;;
73428;SDS011;61643;49.564;17.412;2024-02-26T12:22:06;2.38;;;1.30;;
73428;SDS011;61643;49.564;17.412;2024-02-26T12:24:32;2.15;;;1.30;;
73428;SDS011;61643;49.564;17.412;2024-02-26T12:26:58;2.45;;;1.70;;
73428;SDS011;61643;49.564;17.412;2024-02-26T12:29:24;2.03;;;1.70;;
73428;SDS011;61643;49.564;17.412;2024-02-26T12:31:50;2.25;;;1.60;;
73428;SDS011;61643;49.564;17.412;2024-02-26T12:34:16;3.22;;;1.90;;
73428;SDS011;61643;49.564;17.412;2024-02-26T12:36:42;2.42;;;1.30;;
73428;SDS011;61643;49.564;17.412;2024-02-26T12:39:08;2.80;;;1.50;;
73428;SDS011;61643;49.564;17.412;2024-02-26T12:41:35;2.35;;;1.65;;
73428;SDS011;61643;49.564;17.412;2024-02-26T12:44:01;2.75;;;1.63;;
73428;SDS011;61643;49.564;17.412;2024-02-26T12:46:27;2.30;;;1.60;;
73428;SDS011;61643;49.564;17.412;2024-02-26T12:48:56;3.33;;;1.70;;
73428;SDS011;61643;49.564;17.412;2024-02-26T12:51:25;3.60;;;1.88;;
73428;SDS011;61643;49.564;17.412;2024-02-26T12:53:52;2.20;;;1.75;;
73428;SDS011;61643;49.564;17.412;2024-02-26T12:56:21;2.95;;;1.98;;
73428;SDS011;61643;49.564;17.412;2024-02-26T12:58:47;3.00;;;1.90;;
73428;SDS011;61643;49.564;17.412;2024-02-26T13:01:17;3.15;;;1.70;;
73428;SDS011;61643;49.564;17.412;2024-02-26T13:03:45;2.85;;;2.00;;
73428;SDS011;61643;49.564;17.412;2024-02-26T13:06:11;2.83;;;1.50;;
73428;SDS011;61643;49.564;17.412;2024-02-26T13:08:38;4.55;;;1.80;;
73428;SDS011;61643;49.564;17.412;2024-02-26T13:11:04;2.75;;;1.63;;
73428;SDS011;61643;49.564;17.412;2024-02-26T13:13:30;1.90;;;1.50;;
73428;SDS011;61643;49.564;17.412;2024-02-26T13:16:03;3.15;;;2.05;;
73428;SDS011;61643;49.564;17.412;2024-02-26T13:18:31;2.10;;;1.75;;
73428;SDS011;61643;49.564;17.412;2024-02-26T13:21:07;3.15;;;2.00;;
73428;SDS011;61643;49.564;17.412;2024-02-26T13:23:37;3.10;;;2.25;;
73428;SDS011;61643;49.564;17.412;2024-02-26T13:26:04;3.75;;;1.83;;
73428;SDS011;61643;49.564;17.412;2024-02-26T13:28:30;3.60;;;1.90;;
73428;SDS011;61643;49.564;17.412;2024-02-26T13:30:57;2.80;;;1.63;;
73428;SDS011;61643;49.564;17.412;2024-02-26T13:33:24;2.45;;;1.42;;
73428;SDS011;61643;49.564;17.412;2024-02-26T13:35:50;2.20;;;1.60;;
73428;SDS011;61643;49.564;17.412;2024-02-26T13:38:16;3.70;;;1.90;;
73428;SDS011;61643;49.564;17.412;2024-02-26T13:40:43;2.90;;;1.83;;
73428;SDS011;61643;49.564;17.412;2024-02-26T13:43:09;3.60;;;1.80;;
73428;SDS011;61643;49.564;17.412;2024-02-26T13:45:35;5.45;;;1.83;;
73428;SDS011;61643;49.564;17.412;2024-02-26T13:48:03;2.25;;;1.90;;
73428;SDS011;61643;49.564;17.412;2024-02-26T13:50:30;3.95;;;2.03;;
73428;SDS011;61643;49.564;17.412;2024-02-26T13:52:57;3.05;;;1.98;;
73428;SDS011;61643;49.564;17.412;2024-02-26T13:55:26;5.80;;;3.42;;
73428;SDS011;61643;49.564;17.412;2024-02-26T13:57:54;2.72;;;1.73;;
73428;SDS011;61643;49.564;17.412;2024-02-26T14:00:20;3.22;;;1.95;;
73428;SDS011;61643;49.564;17.412;2024-02-26T14:02:46;2.53;;;1.42;;
73428;SDS011;61643;49.564;17.412;2024-02-26T14:05:12;3.42;;;2.10;;
73428;SDS011;61643;49.564;17.412;2024-02-26T14:07:39;3.15;;;1.80;;
73428;SDS011;61643;49.564;17.412;2024-02-26T14:10:05;3.95;;;2.10;;
73428;SDS011;61643;49.564;17.412;2024-02-26T14:12:32;5.38;;;1.88;;
73428;SDS011;61643;49.564;17.412;2024-02-26T14:14:57;2.67;;;1.70;;
73428;SDS011;61643;49.564;17.412;2024-02-26T14:17:26;3.83;;;2.22;;
73428;SDS011;61643;49.564;17.412;2024-02-26T14:19:52;4.68;;;2.47;;
73428;SDS011;61643;49.564;17.412;2024-02-26T14:22:18;3.13;;;1.80;;
73428;SDS011;61643;49.564;17.412;2024-02-26T14:24:44;3.33;;;2.05;;
73428;SDS011;61643;49.564;17.412;2024-02-26T14:27:11;3.20;;;1.83;;
73428;SDS011;61643;49.564;17.412;2024-02-26T14:29:43;6.18;;;3.13;;
73428;SDS011;61643;49.564;17.412;2024-02-26T14:32:09;2.85;;;1.73;;
73428;SDS011;61643;49.564;17.412;2024-02-26T14:34:35;3.47;;;2.00;;
73428;SDS011;61643;49.564;17.412;2024-02-26T14:37:01;3.08;;;1.90;;
73428;SDS011;61643;49.564;17.412;2024-02-26T14:39:28;4.60;;;2.15;;
73428;SDS011;61643;49.564;17.412;2024-02-26T14:41:55;2.80;;;1.95;;